sensor_id;sensor_type;location;lat;lon;timestamp;pressure;altitude;pressure_sealevel;temperature;humidity
37792;BME280;29527;55.766;37.570;2023-04-15T00:01:18;100965.09;;;1.93;22.28
37792;BME280;29527;55.766;37.570;2023-04-15T00:03:45;100984.25;;;2.01;22.68
37792;BME280;29527;55.766;37.570;2023-04-15T00:06:11;100984.16;;;2.06;22.25
37792;BME280;29527;55.766;37.570;2023-04-15T00:08:38;101012.06;;;2.14;22.39
37792;BME280;29527;55.766;37.570;2023-04-15T00:11:05;100954.31;;;1.66;22.90
37792;BME280;29527;55.766;37.570;2023-04-15T00:13:31;100983.44;;;1.99;22.64
37792;BME280;29527;55.766;37.570;2023-04-15T00:15:58;100959.66;;;1.64;22.64
37792;BME280;29527;55.766;37.570;2023-04-15T00:18:24;100991.25;;;1.69;22.96
37792;BME280;29527;55.766;37.570;2023-04-15T00:20:49;100978.88;;;1.71;22.56
37792;BME280;29527;55.766;37.570;2023-04-15T00:23:15;101002.13;;;1.91;22.74
37792;BME280;29527;55.766;37.570;2023-04-15T00:25:41;101001.22;;;1.92;22.68
37792;BME280;29527;55.766;37.570;2023-04-15T00:28:06;101006.75;;;1.81;22.94
37792;BME280;29527;55.766;37.570;2023-04-15T00:30:32;101006.75;;;1.81;22.81
37792;BME280;29527;55.766;37.570;2023-04-15T00:32:59;101006.19;;;1.70;22.86
37792;BME280;29527;55.766;37.570;2023-04-15T00:35:26;101001.81;;;1.69;23.14
37792;BME280;29527;55.766;37.570;2023-04-15T00:37:52;100998.38;;;1.64;23.20
37792;BME280;29527;55.766;37.570;2023-04-15T00:40:20;101017.44;;;1.77;23.18
37792;BME280;29527;55.766;37.570;2023-04-15T00:42:45;101017.59;;;1.70;23.43
37792;BME280;29527;55.766;37.570;2023-04-15T00:45:11;100987.66;;;1.34;23.15
37792;BME280;29527;55.766;37.570;2023-04-15T00:47:38;101021.09;;;1.71;22.92
37792;BME280;29527;55.766;37.570;2023-04-15T00:50:06;101011.91;;;1.50;23.30
37792;BME280;29527;55.766;37.570;2023-04-15T00:52:31;100998.84;;;1.45;23.20
37792;BME280;29527;55.766;37.570;2023-04-15T00:54:57;101031.63;;;1.35;23.50
37792;BME280;29527;55.766;37.570;2023-04-15T00:57:23;101033.84;;;1.53;23.55
37792;BME280;29527;55.766;37.570;2023-04-15T00:59:50;101026.31;;;1.36;23.49
37792;BME280;29527;55.766;37.570;2023-04-15T01:02:16;101042.34;;;1.27;23.41
37792;BME280;29527;55.766;37.570;2023-04-15T01:04:42;101011.19;;;1.43;23.40
37792;BME280;29527;55.766;37.570;2023-04-15T01:07:07;101042.28;;;1.68;23.22
37792;BME280;29527;55.766;37.570;2023-04-15T01:09:33;101043.50;;;1.54;23.45
37792;BME280;29527;55.766;37.570;2023-04-15T01:11:59;101044.06;;;1.28;23.85
37792;BME280;29527;55.766;37.570;2023-04-15T01:14:24;101056.00;;;1.46;23.51
37792;BME280;29527;55.766;37.570;2023-04-15T01:16:51;101056.91;;;1.45;23.62
37792;BME280;29527;55.766;37.570;2023-04-15T01:19:17;101022.81;;;1.36;23.42
37792;BME280;29527;55.766;37.570;2023-04-15T01:21:42;101052.66;;;1.38;23.33
37792;BME280;29527;55.766;37.570;2023-04-15T01:24:09;101067.94;;;1.23;23.80
37792;BME280;29527;55.766;37.570;2023-04-15T01:26:37;101062.53;;;1.29;23.93
37792;BME280;29527;55.766;37.570;2023-04-15T01:29:02;101057.50;;;1.17;23.59
37792;BME280;29527;55.766;37.570;2023-04-15T01:31:28;101067.38;;;1.07;23.80
37792;BME280;29527;55.766;37.570;2023-04-15T01:33:53;101073.34;;;1.58;23.32
37792;BME280;29527;55.766;37.570;2023-04-15T01:36:37;101067.97;;;1.20;23.65
37792;BME280;29527;55.766;37.570;2023-04-15T01:39:02;101040.41;;;0.94;23.72
37792;BME280;29527;55.766;37.570;2023-04-15T01:41:29;101077.06;;;1.07;24.31
37792;BME280;29527;55.766;37.570;2023-04-15T01:43:57;101073.69;;;1.02;24.29
37792;BME280;29527;55.766;37.570;2023-04-15T01:46:23;101073.59;;;1.05;24.13
37792;BME280;29527;55.766;37.570;2023-04-15T01:48:50;101080.75;;;0.99;24.07
37792;BME280;29527;55.766;37.570;2023-04-15T01:51:17;101079.25;;;0.86;24.35
37792;BME280;29527;55.766;37.570;2023-04-15T01:53:43;101087.88;;;0.94;24.20
37792;BME280;29527;55.766;37.570;2023-04-15T01:56:10;101087.16;;;0.86;24.58
37792;BME280;29527;55.766;37.570;2023-04-15T01:58:37;101094.50;;;1.14;24.09
37792;BME280;29527;55.766;37.570;2023-04-15T02:01:05;101094.09;;;0.92;24.57
37792;BME280;29527;55.766;37.570;2023-04-15T02:03:32;101092.22;;;0.95;24.37
37792;BME280;29527;55.766;37.570;2023-04-15T02:05:59;101102.28;;;0.78;24.37
37792;BME280;29527;55.766;37.570;2023-04-15T02:08:26;101099.72;;;0.71;25.02
37792;BME280;29527;55.766;37.570;2023-04-15T02:10:52;101112.91;;;0.73;24.33
37792;BME280;29527;55.766;37.570;2023-04-15T02:13:19;101104.88;;;0.79;24.13
37792;BME280;29527;55.766;37.570;2023-04-15T02:15:47;101107.59;;;0.75;24.59
37792;BME280;29527;55.766;37.570;2023-04-15T02:18:15;101118.94;;;0.78;24.57
37792;BME280;29527;55.766;37.570;2023-04-15T02:20:42;101118.69;;;0.92;24.60
37792;BME280;29527;55.766;37.570;2023-04-15T02:23:09;101109.28;;;0.79;24.54
37792;BME280;29527;55.766;37.570;2023-04-15T02:25:37;101125.88;;;0.82;24.59
37792;BME280;29527;55.766;37.570;2023-04-15T02:28:04;101128.50;;;0.84;24.57
37792;BME280;29527;55.766;37.570;2023-04-15T02:30:34;101132.88;;;0.87;24.53
37792;BME280;29527;55.766;37.570;2023-04-15T02:33:00;101138.13;;;0.87;24.67
37792;BME280;29527;55.766;37.570;2023-04-15T02:35:27;101128.72;;;0.71;24.87
37792;BME280;29527;55.766;37.570;2023-04-15T02:37:54;101133.34;;;0.59;24.69
37792;BME280;29527;55.766;37.570;2023-04-15T02:40:21;101136.09;;;0.52;24.73
37792;BME280;29527;55.766;37.570;2023-04-15T02:42:48;101131.44;;;0.68;25.29
37792;BME280;29527;55.766;37.570;2023-04-15T02:45:14;101144.53;;;0.71;24.43
37792;BME280;29527;55.766;37.570;2023-04-15T02:47:41;101134.81;;;0.75;24.60
37792;BME280;29527;55.766;37.570;2023-04-15T02:50:10;101149.66;;;0.81;24.49
37792;BME280;29527;55.766;37.570;2023-04-15T02:52:39;101160.09;;;0.87;25.10
37792;BME280;29527;55.766;37.570;2023-04-15T02:55:07;101153.97;;;0.87;24.46
37792;BME280;29527;55.766;37.570;2023-04-15T02:57:35;101161.81;;;0.88;24.83
37792;BME280;29527;55.766;37.570;2023-04-15T03:00:03;101149.47;;;0.90;24.72
37792;BME280;29527;55.766;37.570;2023-04-15T03:02:34;101158.94;;;1.02;24.98
37792;BME280;29527;55.766;37.570;2023-04-15T03:05:01;101165.78;;;1.12;24.33
37792;BME280;29527;55.766;37.570;2023-04-15T03:07:28;101168.56;;;1.03;24.69
37792;BME280;29527;55.766;37.570;2023-04-15T03:09:54;101175.53;;;1.07;24.61
37792;BME280;29527;55.766;37.570;2023-04-15T03:12:21;101178.03;;;1.15;24.93
37792;BME280;29527;55.766;37.570;2023-04-15T03:14:48;101173.25;;;1.34;24.16
37792;BME280;29527;55.766;37.570;2023-04-15T03:17:14;101197.16;;;1.26;24.07
37792;BME280;29527;55.766;37.570;2023-04-15T03:19:42;101181.31;;;1.26;24.27
37792;BME280;29527;55.766;37.570;2023-04-15T03:22:09;101181.25;;;1.29;23.93
37792;BME280;29527;55.766;37.570;2023-04-15T03:24:36;101179.03;;;1.53;23.79
37792;BME280;29527;55.766;37.570;2023-04-15T03:27:02;101185.88;;;1.62;23.65
37792;BME280;29527;55.766;37.570;2023-04-15T03:29:31;101203.44;;;1.63;23.81
37792;BME280;29527;55.766;37.570;2023-04-15T03:31:58;101185.06;;;1.58;23.76
37792;BME280;29527;55.766;37.570;2023-04-15T03:34:25;101183.13;;;1.67;23.38
37792;BME280;29527;55.766;37.570;2023-04-15T03:36:52;101184.91;;;1.65;23.41
37792;BME280;29527;55.766;37.570;2023-04-15T03:39:18;101184.38;;;1.90;23.19
37792;BME280;29527;55.766;37.570;2023-04-15T03:41:45;101184.00;;;2.07;23.19
37792;BME280;29527;55.766;37.570;2023-04-15T03:44:12;101191.72;;;2.16;23.27
37792;BME280;29527;55.766;37.570;2023-04-15T03:46:39;101199.06;;;2.39;22.91
37792;BME280;29527;55.766;37.570;2023-04-15T03:49:06;101174.16;;;2.50;22.62
37792;BME280;29527;55.766;37.570;2023-04-15T03:51:33;101194.78;;;2.71;22.58
37792;BME280;29527;55.766;37.570;2023-04-15T03:54:00;101177.63;;;2.86;22.10
37792;BME280;29527;55.766;37.570;2023-04-15T03:56:27;101197.47;;;3.35;21.83
37792;BME280;29527;55.766;37.570;2023-04-15T03:58:54;101218.06;;;3.86;21.16
37792;BME280;29527;55.766;37.570;2023-04-15T04:01:21;101196.94;;;4.13;20.94
37792;BME280;29527;55.766;37.570;2023-04-15T04:03:48;101205.72;;;4.42;20.66
37792;BME280;29527;55.766;37.570;2023-04-15T04:06:15;101207.81;;;4.59;20.18
37792;BME280;29527;55.766;37.570;2023-04-15T04:08:42;101169.50;;;4.68;19.87
37792;BME280;29527;55.766;37.570;2023-04-15T04:11:09;101205.13;;;4.61;20.05
37792;BME280;29527;55.766;37.570;2023-04-15T04:13:35;101181.06;;;4.66;20.70
37792;BME280;29527;55.766;37.570;2023-04-15T04:16:02;101212.59;;;5.02;19.28
37792;BME280;29527;55.766;37.570;2023-04-15T04:18:32;101217.78;;;5.30;19.27
37792;BME280;29527;55.766;37.570;2023-04-15T04:20:59;101209.72;;;5.57;18.99
37792;BME280;29527;55.766;37.570;2023-04-15T04:23:26;101228.38;;;5.80;19.05
37792;BME280;29527;55.766;37.570;2023-04-15T04:25:53;101212.38;;;6.05;18.70
37792;BME280;29527;55.766;37.570;2023-04-15T04:28:19;101220.16;;;6.54;18.34
37792;BME280;29527;55.766;37.570;2023-04-15T04:30:47;101236.91;;;7.20;17.70
37792;BME280;29527;55.766;37.570;2023-04-15T04:33:13;101222.31;;;7.29;17.41
37792;BME280;29527;55.766;37.570;2023-04-15T04:35:40;101243.75;;;7.46;17.44
37792;BME280;29527;55.766;37.570;2023-04-15T04:38:07;101174.59;;;7.03;17.40
37792;BME280;29527;55.766;37.570;2023-04-15T04:40:34;101229.97;;;7.37;17.25
37792;BME280;29527;55.766;37.570;2023-04-15T04:43:01;101232.22;;;7.86;17.11
37792;BME280;29527;55.766;37.570;2023-04-15T04:45:27;101223.09;;;8.65;16.15
37792;BME280;29527;55.766;37.570;2023-04-15T04:47:54;101227.94;;;9.45;15.68
37792;BME280;29527;55.766;37.570;2023-04-15T04:50:21;101216.69;;;9.72;14.86
37792;BME280;29527;55.766;37.570;2023-04-15T04:52:47;101223.13;;;10.17;14.58
37792;BME280;29527;55.766;37.570;2023-04-15T04:55:14;101217.16;;;10.28;15.01
37792;BME280;29527;55.766;37.570;2023-04-15T04:57:41;101227.75;;;10.62;14.59
37792;BME280;29527;55.766;37.570;2023-04-15T05:00:08;101222.84;;;10.85;14.39
37792;BME280;29527;55.766;37.570;2023-04-15T05:02:35;101219.50;;;11.41;13.79
37792;BME280;29527;55.766;37.570;2023-04-15T05:05:02;101235.41;;;11.73;13.91
37792;BME280;29527;55.766;37.570;2023-04-15T05:07:28;101220.16;;;11.88;13.29
37792;BME280;29527;55.766;37.570;2023-04-15T05:09:55;101223.38;;;12.22;13.29
37792;BME280;29527;55.766;37.570;2023-04-15T05:12:22;101214.56;;;12.47;13.14
37792;BME280;29527;55.766;37.570;2023-04-15T05:14:48;101229.06;;;12.45;13.09
37792;BME280;29527;55.766;37.570;2023-04-15T05:17:15;101223.03;;;11.85;13.22
37792;BME280;29527;55.766;37.570;2023-04-15T05:19:42;101239.81;;;11.45;13.71
37792;BME280;29527;55.766;37.570;2023-04-15T05:22:08;101228.88;;;10.74;13.87
37792;BME280;29527;55.766;37.570;2023-04-15T05:24:35;101239.53;;;10.27;14.18
37792;BME280;29527;55.766;37.570;2023-04-15T05:27:02;101232.34;;;9.80;14.59
37792;BME280;29527;55.766;37.570;2023-04-15T05:29:29;101223.78;;;9.39;15.47
37792;BME280;29527;55.766;37.570;2023-04-15T05:31:56;101199.69;;;9.23;15.41
37792;BME280;29527;55.766;37.570;2023-04-15T05:34:22;101239.13;;;9.85;15.29
37792;BME280;29527;55.766;37.570;2023-04-15T05:36:51;101230.38;;;10.15;14.93
37792;BME280;29527;55.766;37.570;2023-04-15T05:39:18;101221.91;;;10.39;14.69
37792;BME280;29527;55.766;37.570;2023-04-15T05:41:45;101236.69;;;10.46;14.45
37792;BME280;29527;55.766;37.570;2023-04-15T05:44:12;101251.28;;;10.41;14.51
37792;BME280;29527;55.766;37.570;2023-04-15T05:46:39;101241.88;;;9.68;14.60
37792;BME280;29527;55.766;37.570;2023-04-15T05:49:05;101247.41;;;9.13;15.06
37792;BME280;29527;55.766;37.570;2023-04-15T05:51:32;101243.00;;;9.12;15.22
37792;BME280;29527;55.766;37.570;2023-04-15T05:53:59;101244.81;;;9.63;14.95
37792;BME280;29527;55.766;37.570;2023-04-15T05:56:26;101250.06;;;10.14;14.62
37792;BME280;29527;55.766;37.570;2023-04-15T05:58:53;101271.81;;;10.72;13.95
37792;BME280;29527;55.766;37.570;2023-04-15T06:01:20;101257.66;;;10.85;13.57
37792;BME280;29527;55.766;37.570;2023-04-15T06:03:46;101250.81;;;11.40;13.45
37792;BME280;29527;55.766;37.570;2023-04-15T06:06:14;101253.94;;;12.61;12.59
37792;BME280;29527;55.766;37.570;2023-04-15T06:08:41;101255.84;;;13.79;11.85
37792;BME280;29527;55.766;37.570;2023-04-15T06:11:07;101249.81;;;14.50;11.29
37792;BME280;29527;55.766;37.570;2023-04-15T06:13:34;101245.84;;;15.39;10.89
37792;BME280;29527;55.766;37.570;2023-04-15T06:16:01;101225.03;;;15.98;10.49
37792;BME280;29527;55.766;37.570;2023-04-15T06:18:27;101260.59;;;16.26;10.22
37792;BME280;29527;55.766;37.570;2023-04-15T06:20:54;101261.28;;;16.39;10.13
37792;BME280;29527;55.766;37.570;2023-04-15T06:23:21;101260.78;;;15.90;10.44
37792;BME280;29527;55.766;37.570;2023-04-15T06:25:47;101261.25;;;16.06;10.24
37792;BME280;29527;55.766;37.570;2023-04-15T06:28:23;101253.75;;;17.19;10.66
37792;BME280;29527;55.766;37.570;2023-04-15T06:31:07;101250.38;;;17.79;9.83
37792;BME280;29527;55.766;37.570;2023-04-15T06:33:36;101264.16;;;18.48;8.62
37792;BME280;29527;55.766;37.570;2023-04-15T06:36:03;101266.00;;;18.38;8.40
37792;BME280;29527;55.766;37.570;2023-04-15T06:38:29;101245.03;;;18.60;8.28
37792;BME280;29527;55.766;37.570;2023-04-15T06:40:56;101252.28;;;19.28;8.04
37792;BME280;29527;55.766;37.570;2023-04-15T06:43:23;101265.53;;;19.89;7.87
37792;BME280;29527;55.766;37.570;2023-04-15T06:45:50;101256.84;;;20.41;7.63
37792;BME280;29527;55.766;37.570;2023-04-15T06:48:17;101254.50;;;21.19;7.55
37792;BME280;29527;55.766;37.570;2023-04-15T06:50:43;101261.22;;;22.20;6.75
37792;BME280;29527;55.766;37.570;2023-04-15T06:53:10;101260.41;;;21.93;6.90
37792;BME280;29527;55.766;37.570;2023-04-15T06:55:37;101266.94;;;22.01;6.91
37792;BME280;29527;55.766;37.570;2023-04-15T06:58:03;101247.94;;;22.42;6.55
37792;BME280;29527;55.766;37.570;2023-04-15T07:00:30;101258.97;;;23.00;6.41
37792;BME280;29527;55.766;37.570;2023-04-15T07:02:59;101252.41;;;23.59;5.79
37792;BME280;29527;55.766;37.570;2023-04-15T07:05:29;101264.59;;;23.97;4.96
37792;BME280;29527;55.766;37.570;2023-04-15T07:07:57;101261.78;;;22.32;6.26
37792;BME280;29527;55.766;37.570;2023-04-15T07:10:24;101274.75;;;21.43;6.32
37792;BME280;29527;55.766;37.570;2023-04-15T07:12:51;101266.56;;;21.43;6.81
37792;BME280;29527;55.766;37.570;2023-04-15T07:15:18;101269.84;;;21.46;6.74
37792;BME280;29527;55.766;37.570;2023-04-15T07:17:44;101256.81;;;21.58;6.47
37792;BME280;29527;55.766;37.570;2023-04-15T07:20:11;101275.28;;;21.99;6.12
37792;BME280;29527;55.766;37.570;2023-04-15T07:22:38;101260.88;;;21.54;6.57
37792;BME280;29527;55.766;37.570;2023-04-15T07:25:06;101273.44;;;21.02;6.76
37792;BME280;29527;55.766;37.570;2023-04-15T07:27:33;101261.97;;;20.44;6.87
37792;BME280;29527;55.766;37.570;2023-04-15T07:29:59;101263.66;;;20.27;6.92
37792;BME280;29527;55.766;37.570;2023-04-15T07:32:26;101258.81;;;19.55;7.13
37792;BME280;29527;55.766;37.570;2023-04-15T07:34:53;101265.97;;;19.56;7.17
37792;BME280;29527;55.766;37.570;2023-04-15T07:37:19;101268.72;;;19.84;7.11
37792;BME280;29527;55.766;37.570;2023-04-15T07:39:46;101260.19;;;20.07;7.00
37792;BME280;29527;55.766;37.570;2023-04-15T07:42:14;101243.00;;;21.07;6.50
37792;BME280;29527;55.766;37.570;2023-04-15T07:44:41;101258.19;;;21.89;6.27
37792;BME280;29527;55.766;37.570;2023-04-15T07:47:07;101256.38;;;22.06;6.03
37792;BME280;29527;55.766;37.570;2023-04-15T07:49:34;101249.78;;;21.74;5.51
37792;BME280;29527;55.766;37.570;2023-04-15T07:52:20;101267.28;;;21.18;5.90
37792;BME280;29527;55.766;37.570;2023-04-15T07:54:46;101254.66;;;20.27;6.63
37792;BME280;29527;55.766;37.570;2023-04-15T07:57:13;101257.94;;;20.48;6.25
37792;BME280;29527;55.766;37.570;2023-04-15T07:59:40;101266.09;;;20.48;6.37
37792;BME280;29527;55.766;37.570;2023-04-15T08:02:07;101250.97;;;19.90;6.46
37792;BME280;29527;55.766;37.570;2023-04-15T08:04:34;101247.16;;;19.25;6.87
37792;BME280;29527;55.766;37.570;2023-04-15T08:07:00;101261.84;;;18.54;7.16
37792;BME280;29527;55.766;37.570;2023-04-15T08:09:27;101255.25;;;16.91;7.89
37792;BME280;29527;55.766;37.570;2023-04-15T08:11:54;101276.69;;;15.70;8.62
37792;BME280;29527;55.766;37.570;2023-04-15T08:14:23;101265.94;;;14.63;9.17
37792;BME280;29527;55.766;37.570;2023-04-15T08:16:50;101260.28;;;13.54;10.05
37792;BME280;29527;55.766;37.570;2023-04-15T08:19:16;101267.78;;;12.83;10.71
37792;BME280;29527;55.766;37.570;2023-04-15T08:21:43;101268.56;;;12.30;11.52
37792;BME280;29527;55.766;37.570;2023-04-15T08:24:10;101266.72;;;11.87;11.63
37792;BME280;29527;55.766;37.570;2023-04-15T08:26:37;101258.34;;;11.19;12.01
37792;BME280;29527;55.766;37.570;2023-04-15T08:29:03;101255.50;;;10.91;11.74
37792;BME280;29527;55.766;37.570;2023-04-15T08:31:31;101267.56;;;10.68;11.86
37792;BME280;29527;55.766;37.570;2023-04-15T08:33:57;101270.63;;;10.62;12.24
37792;BME280;29527;55.766;37.570;2023-04-15T08:36:25;101267.50;;;10.54;12.02
37792;BME280;29527;55.766;37.570;2023-04-15T08:38:52;101254.28;;;10.18;12.21
37792;BME280;29527;55.766;37.570;2023-04-15T08:41:24;101267.31;;;9.93;12.70
37792;BME280;29527;55.766;37.570;2023-04-15T08:44:03;101250.56;;;10.05;12.24
37792;BME280;29527;55.766;37.570;2023-04-15T08:46:31;101254.50;;;9.82;12.70
37792;BME280;29527;55.766;37.570;2023-04-15T08:49:02;101265.53;;;9.75;12.20
37792;BME280;29527;55.766;37.570;2023-04-15T08:51:30;101241.69;;;9.55;12.35
37792;BME280;29527;55.766;37.570;2023-04-15T08:53:57;101256.97;;;9.35;12.79
37792;BME280;29527;55.766;37.570;2023-04-15T08:56:25;101258.56;;;9.89;11.97
37792;BME280;29527;55.766;37.570;2023-04-15T08:58:52;101243.69;;;9.33;12.55
37792;BME280;29527;55.766;37.570;2023-04-15T09:01:19;101232.69;;;9.22;12.71
37792;BME280;29527;55.766;37.570;2023-04-15T09:03:48;101244.22;;;9.40;12.61
37792;BME280;29527;55.766;37.570;2023-04-15T09:06:16;101242.31;;;9.60;12.45
37792;BME280;29527;55.766;37.570;2023-04-15T09:08:43;101252.59;;;9.68;11.91
37792;BME280;29527;55.766;37.570;2023-04-15T09:11:10;101228.75;;;9.63;11.98
37792;BME280;29527;55.766;37.570;2023-04-15T09:13:37;101238.78;;;9.75;12.44
37792;BME280;29527;55.766;37.570;2023-04-15T09:16:05;101239.22;;;9.68;12.81
37792;BME280;29527;55.766;37.570;2023-04-15T09:18:33;101227.63;;;9.67;12.81
37792;BME280;29527;55.766;37.570;2023-04-15T09:21:12;101236.69;;;10.14;12.74
37792;BME280;29527;55.766;37.570;2023-04-15T09:23:59;101224.56;;;10.23;12.58
37792;BME280;29527;55.766;37.570;2023-04-15T09:26:36;101219.06;;;10.42;12.35
37792;BME280;29527;55.766;37.570;2023-04-15T09:29:08;101239.53;;;10.43;12.30
37792;BME280;29527;55.766;37.570;2023-04-15T09:31:42;101228.22;;;10.38;12.22
37792;BME280;29527;55.766;37.570;2023-04-15T09:34:09;101234.22;;;10.74;11.84
37792;BME280;29527;55.766;37.570;2023-04-15T09:39:17;101227.00;;;10.44;11.92
37792;BME280;29527;55.766;37.570;2023-04-15T09:41:44;101228.28;;;10.37;11.88
37792;BME280;29527;55.766;37.570;2023-04-15T09:44:24;101220.63;;;10.46;11.89
37792;BME280;29527;55.766;37.570;2023-04-15T09:46:51;101224.25;;;10.45;11.80
37792;BME280;29527;55.766;37.570;2023-04-15T09:49:18;101235.91;;;10.44;12.17
37792;BME280;29527;55.766;37.570;2023-04-15T09:51:46;101241.56;;;10.70;11.66
37792;BME280;29527;55.766;37.570;2023-04-15T09:54:18;101239.47;;;11.06;11.67
37792;BME280;29527;55.766;37.570;2023-04-15T09:56:46;101228.47;;;11.11;11.44
37792;BME280;29527;55.766;37.570;2023-04-15T09:59:12;101216.31;;;11.05;11.81
37792;BME280;29527;55.766;37.570;2023-04-15T10:01:41;101224.19;;;11.23;11.63
37792;BME280;29527;55.766;37.570;2023-04-15T10:04:08;101221.44;;;11.39;11.29
37792;BME280;29527;55.766;37.570;2023-04-15T10:06:36;101233.22;;;11.51;11.48
37792;BME280;29527;55.766;37.570;2023-04-15T10:09:02;101245.19;;;11.45;11.38
37792;BME280;29527;55.766;37.570;2023-04-15T10:11:30;101208.56;;;11.15;10.85
37792;BME280;29527;55.766;37.570;2023-04-15T10:13:57;101238.47;;;11.38;10.91
37792;BME280;29527;55.766;37.570;2023-04-15T10:16:26;101240.19;;;11.39;11.09
37792;BME280;29527;55.766;37.570;2023-04-15T10:19:01;101230.97;;;11.28;10.64
37792;BME280;29527;55.766;37.570;2023-04-15T10:21:29;101231.81;;;11.14;10.90
37792;BME280;29527;55.766;37.570;2023-04-15T10:23:57;101223.66;;;11.01;11.24
37792;BME280;29527;55.766;37.570;2023-04-15T10:26:24;101230.22;;;11.26;11.06
37792;BME280;29527;55.766;37.570;2023-04-15T10:28:52;101218.47;;;11.58;11.04
37792;BME280;29527;55.766;37.570;2023-04-15T10:31:19;101218.19;;;11.62;10.94
37792;BME280;29527;55.766;37.570;2023-04-15T10:33:46;101213.94;;;11.73;11.02
37792;BME280;29527;55.766;37.570;2023-04-15T10:36:16;101222.00;;;11.87;11.06
37792;BME280;29527;55.766;37.570;2023-04-15T10:38:45;101220.63;;;11.95;10.96
37792;BME280;29527;55.766;37.570;2023-04-15T10:41:16;101213.41;;;12.24;10.74
37792;BME280;29527;55.766;37.570;2023-04-15T10:46:41;101209.75;;;12.25;10.54
37792;BME280;29527;55.766;37.570;2023-04-15T10:49:11;101227.88;;;12.22;10.26
37792;BME280;29527;55.766;37.570;2023-04-15T10:51:40;101225.16;;;11.94;10.39
37792;BME280;29527;55.766;37.570;2023-04-15T10:54:12;101216.06;;;11.68;10.90
37792;BME280;29527;55.766;37.570;2023-04-15T10:56:41;101224.69;;;11.73;11.14
37792;BME280;29527;55.766;37.570;2023-04-15T10:59:08;101180.31;;;11.67;10.98
37792;BME280;29527;55.766;37.570;2023-04-15T11:02:07;101198.00;;;12.13;11.32
37792;BME280;29527;55.766;37.570;2023-04-15T11:04:58;101209.94;;;12.49;10.91
37792;BME280;29527;55.766;37.570;2023-04-15T11:12:58;101202.47;;;12.27;10.47
37792;BME280;29527;55.766;37.570;2023-04-15T11:15:37;101211.00;;;12.19;10.85
37792;BME280;29527;55.766;37.570;2023-04-15T11:18:18;101200.03;;;11.95;10.78
37792;BME280;29527;55.766;37.570;2023-04-15T11:23:14;101212.97;;;11.74;10.81
37792;BME280;29527;55.766;37.570;2023-04-15T11:25:41;101213.38;;;11.68;10.86
37792;BME280;29527;55.766;37.570;2023-04-15T11:28:17;101221.22;;;11.56;11.11
37792;BME280;29527;55.766;37.570;2023-04-15T11:30:43;101198.59;;;11.31;11.01
37792;BME280;29527;55.766;37.570;2023-04-15T11:33:11;101192.75;;;11.10;11.36
37792;BME280;29527;55.766;37.570;2023-04-15T11:35:42;101196.97;;;11.14;11.55
37792;BME280;29527;55.766;37.570;2023-04-15T11:38:10;101168.91;;;10.91;11.76
37792;BME280;29527;55.766;37.570;2023-04-15T11:40:39;101202.72;;;11.08;11.28
37792;BME280;29527;55.766;37.570;2023-04-15T11:43:08;101179.59;;;10.76;11.36
37792;BME280;29527;55.766;37.570;2023-04-15T11:45:58;101206.16;;;10.65;11.58
37792;BME280;29527;55.766;37.570;2023-04-15T11:48:30;101188.63;;;10.59;11.85
37792;BME280;29527;55.766;37.570;2023-04-15T11:51:05;101192.69;;;10.51;11.86
37792;BME280;29527;55.766;37.570;2023-04-15T11:53:45;101181.88;;;10.68;11.94
37792;BME280;29527;55.766;37.570;2023-04-15T11:56:22;101183.03;;;10.79;12.31
37792;BME280;29527;55.766;37.570;2023-04-15T11:58:53;101172.03;;;10.83;12.00
37792;BME280;29527;55.766;37.570;2023-04-15T12:01:30;101153.88;;;10.88;12.07
37792;BME280;29527;55.766;37.570;2023-04-15T12:03:56;101176.00;;;10.92;11.48
37792;BME280;29527;55.766;37.570;2023-04-15T12:06:24;101176.53;;;10.83;12.16
37792;BME280;29527;55.766;37.570;2023-04-15T12:16:33;101134.34;;;10.41;12.60
37792;BME280;29527;55.766;37.570;2023-04-15T12:18:59;101140.97;;;10.50;12.13
37792;BME280;29527;55.766;37.570;2023-04-15T12:21:34;101157.97;;;10.80;12.42
37792;BME280;29527;55.766;37.570;2023-04-15T12:24:02;101157.47;;;10.73;12.43
37792;BME280;29527;55.766;37.570;2023-04-15T12:29:12;101155.09;;;10.83;12.48
37792;BME280;29527;55.766;37.570;2023-04-15T12:31:46;101131.34;;;10.62;12.44
37792;BME280;29527;55.766;37.570;2023-04-15T12:34:13;101163.91;;;10.85;12.19
37792;BME280;29527;55.766;37.570;2023-04-15T12:36:38;101156.09;;;10.96;12.14
37792;BME280;29527;55.766;37.570;2023-04-15T12:39:04;101153.97;;;11.01;12.23
37792;BME280;29527;55.766;37.570;2023-04-15T12:41:31;101163.97;;;11.14;12.18
37792;BME280;29527;55.766;37.570;2023-04-15T12:43:57;101171.13;;;11.13;12.34
37792;BME280;29527;55.766;37.570;2023-04-15T12:46:23;101162.25;;;11.13;12.38
37792;BME280;29527;55.766;37.570;2023-04-15T12:48:49;101163.34;;;11.09;12.39
37792;BME280;29527;55.766;37.570;2023-04-15T12:51:35;101158.00;;;11.09;12.76
37792;BME280;29527;55.766;37.570;2023-04-15T12:54:01;101153.19;;;10.85;12.86
37792;BME280;29527;55.766;37.570;2023-04-15T12:56:26;101156.81;;;10.84;12.74
37792;BME280;29527;55.766;37.570;2023-04-15T12:58:52;101151.19;;;10.74;13.01
37792;BME280;29527;55.766;37.570;2023-04-15T13:01:25;101127.53;;;10.66;13.13
37792;BME280;29527;55.766;37.570;2023-04-15T13:04:10;101139.44;;;11.05;12.58
37792;BME280;29527;55.766;37.570;2023-04-15T13:06:36;101139.22;;;11.09;12.61
37792;BME280;29527;55.766;37.570;2023-04-15T13:09:03;101166.81;;;10.96;12.57
37792;BME280;29527;55.766;37.570;2023-04-15T13:11:29;101148.69;;;10.85;12.80
37792;BME280;29527;55.766;37.570;2023-04-15T13:13:56;101146.66;;;10.74;12.54